Time;durP1;ratioP1;P1;durP2;ratioP2;P2;SDS_P1;SDS_P2;PMS_P1;PMS_P2;Temp;Humidity;BMP_temperature;BMP_pressure;BME280_temperature;BME280_humidity;BME280_pressure;Samples;Min_cycle;Max_cycle;Signal;HPM_P1;HPM_P2
2022/11/28 00:01:23;;;;;;;6.45;3.22;;;14.20;96.80;;;;;;5076111;28;20029;-70
2022/11/28 00:03:48;;;;;;;3.63;2.70;;;14.10;96.70;;;;;;5076298;28;20039;-71
2022/11/28 00:06:14;;;;;;;4.95;3.28;;;14.10;96.60;;;;;;5076154;28;20029;-71
2022/11/28 00:08:40;;;;;;;4.75;3.15;;;14.00;96.70;;;;;;5076020;28;20028;-71
2022/11/28 00:11:07;;;;;;;4.55;2.60;;;14.00;96.80;;;;;;5076180;28;20064;-71
2022/11/28 00:13:33;;;;;;;5.97;3.35;;;14.00;96.70;;;;;;5075596;28;20024;-71
2022/11/28 00:16:01;;;;;;;5.15;3.15;;;14.00;96.60;;;;;;5076036;28;20021;-70
2022/11/28 00:18:27;;;;;;;5.28;3.17;;;13.90;96.60;;;;;;5075925;28;20052;-71
2022/11/28 00:21:05;;;;;;;4.00;2.75;;;13.90;96.60;;;;;;5075892;28;20037;-71
2022/11/28 00:23:32;;;;;;;4.18;3.17;;;13.90;96.70;;;;;;5075873;28;20028;-71
2022/11/28 00:26:07;;;;;;;4.45;2.83;;;13.80;96.80;;;;;;5075611;28;20058;-70
2022/11/28 00:28:33;;;;;;;4.32;3.40;;;13.80;96.70;;;;;;5075727;28;20025;-70
2022/11/28 00:30:59;;;;;;;3.90;2.45;;;13.80;96.60;;;;;;5075642;28;20042;-71
2022/11/28 00:33:24;;;;;;;3.42;2.85;;;13.90;96.50;;;;;;5075665;28;20029;-70
2022/11/28 00:35:50;;;;;;;4.25;2.78;;;13.90;96.50;;;;;;5075699;28;20028;-71
2022/11/28 00:38:16;;;;;;;3.78;3.03;;;13.90;96.40;;;;;;5075486;28;20039;-70
2022/11/28 00:40:41;;;;;;;5.28;3.22;;;13.90;96.30;;;;;;5075516;28;20438;-70
2022/11/28 00:43:07;;;;;;;3.65;3.20;;;13.90;96.40;;;;;;5074824;28;20429;-70
2022/11/28 00:45:32;;;;;;;4.82;3.00;;;13.90;96.40;;;;;;5075369;28;20033;-70
2022/11/28 00:47:58;;;;;;;3.40;2.92;;;13.80;96.50;;;;;;5075285;28;20466;-71
2022/11/28 00:50:24;;;;;;;5.18;2.75;;;13.80;96.50;;;;;;5075160;28;20547;-70
2022/11/28 00:52:49;;;;;;;8.15;3.10;;;13.90;96.40;;;;;;5075567;28;20424;-69
2022/11/28 00:55:15;;;;;;;5.18;2.88;;;13.80;96.40;;;;;;5075001;28;20028;-70
2022/11/28 00:57:41;;;;;;;3.08;2.60;;;13.70;96.50;;;;;;5075305;28;20074;-70
2022/11/28 01:00:07;;;;;;;4.85;3.17;;;13.80;96.50;;;;;;5075178;28;20071;-70
2022/11/28 01:02:33;;;;;;;4.50;3.25;;;13.80;96.60;;;;;;5075190;28;20377;-70
2022/11/28 01:04:59;;;;;;;5.72;3.13;;;13.70;96.60;;;;;;5074866;28;20036;-71
2022/11/28 01:07:27;;;;;;;4.68;3.20;;;13.70;96.60;;;;;;5074475;28;20025;-70
2022/11/28 01:09:54;;;;;;;5.93;3.00;;;13.60;96.70;;;;;;5073285;28;20100;-71
2022/11/28 01:12:20;;;;;;;3.78;3.38;;;13.70;96.50;;;;;;5075124;28;20100;-71
2022/11/28 01:14:45;;;;;;;4.15;3.03;;;13.70;96.60;;;;;;5074846;28;20100;-69
2022/11/28 01:17:11;;;;;;;3.45;2.75;;;13.70;96.70;;;;;;5075379;28;20479;-70
2022/11/28 01:19:37;;;;;;;5.80;3.17;;;13.60;96.70;;;;;;5074807;28;20466;-71
2022/11/28 01:22:05;;;;;;;5.82;3.70;;;13.60;96.70;;;;;;5073469;28;20115;-70
2022/11/28 01:24:31;;;;;;;3.67;2.85;;;13.50;96.80;;;;;;5074339;28;20040;-70
2022/11/28 01:26:56;;;;;;;5.38;3.20;;;13.60;96.70;;;;;;5075110;28;20108;-70
2022/11/28 01:29:22;;;;;;;3.78;2.97;;;13.60;96.70;;;;;;5074474;28;20052;-70
2022/11/28 01:31:47;;;;;;;6.65;3.47;;;13.60;96.70;;;;;;5074677;28;20418;-71
2022/11/28 01:34:13;;;;;;;3.90;3.20;;;13.60;96.80;;;;;;5074417;28;20086;-70
2022/11/28 01:36:38;;;;;;;5.72;3.28;;;13.60;96.90;;;;;;5074517;28;20013;-70
2022/11/28 01:39:04;;;;;;;4.70;3.50;;;13.50;96.90;;;;;;5074131;28;20432;-70
2022/11/28 01:41:29;;;;;;;5.45;3.35;;;13.50;97.00;;;;;;5074399;28;20009;-69
2022/11/28 01:44:00;;;;;;;5.30;3.15;;;13.50;97.00;;;;;;5074468;28;20021;-70
2022/11/28 01:46:26;;;;;;;4.82;3.50;;;13.50;97.00;;;;;;5074771;28;20477;-71
2022/11/28 01:48:52;;;;;;;5.32;3.20;;;13.50;97.10;;;;;;5074493;28;20063;-70
2022/11/28 01:51:18;;;;;;;4.07;3.22;;;13.50;97.20;;;;;;5074168;28;20382;-70
2022/11/28 01:53:46;;;;;;;4.80;3.53;;;13.40;97.10;;;;;;5073664;28;20024;-71
2022/11/28 01:56:33;;;;;;;4.22;3.30;;;13.50;97.10;;;;;;5073701;28;20017;-70
2022/11/28 01:59:03;;;;;;;5.07;3.13;;;13.50;97.20;;;;;;5074030;28;20054;-70
2022/11/28 02:01:28;;;;;;;5.10;3.65;;;13.50;97.00;;;;;;5073839;28;20483;-71
2022/11/28 02:03:56;;;;;;;3.65;3.35;;;13.50;97.00;;;;;;5072607;28;20024;-71
2022/11/28 02:06:23;;;;;;;3.53;2.97;;;13.50;97.00;;;;;;5073585;28;20037;-70
2022/11/28 02:08:51;;;;;;;6.43;3.65;;;13.50;97.00;;;;;;5073500;28;20207;-70
2022/11/28 02:11:28;;;;;;;4.70;3.40;;;13.50;97.20;;;;;;5073861;28;20024;-69
2022/11/28 02:14:18;;;;;;;3.50;2.97;;;13.40;97.20;;;;;;5073632;28;20028;-70
2022/11/28 02:16:57;;;;;;;4.85;3.22;;;13.40;97.30;;;;;;5072497;28;20031;-70
2022/11/28 02:20:08;;;;;;;3.72;3.40;;;13.50;97.30;;;;;;5073612;28;20120;-70
2022/11/28 02:22:53;;;;;;;5.55;3.03;;;13.40;97.40;;;;;;5073473;28;20021;-71
2022/11/28 02:25:50;;;;;;;5.72;4.22;;;13.50;97.30;;;;;;5073474;28;20036;-71
2022/11/28 02:28:34;;;;;;;4.32;3.40;;;13.40;97.40;;;;;;5073205;28;20089;-71
2022/11/28 02:31:14;;;;;;;6.10;3.30;;;13.40;97.30;;;;;;5073689;28;20031;-71
2022/11/28 02:34:13;;;;;;;4.75;3.72;;;13.40;97.60;;;;;;5072440;28;20119;-70
2022/11/28 02:37:02;;;;;;;4.38;3.38;;;13.40;97.80;;;;;;5072523;28;20040;-69
2022/11/28 02:39:36;;;;;;;5.50;3.60;;;13.30;97.90;;;;;;5073430;28;20020;-69
2022/11/28 02:42:16;;;;;;;4.30;3.38;;;13.30;97.80;;;;;;5071921;28;20478;-70
2022/11/28 02:45:11;;;;;;;5.45;3.72;;;13.30;97.90;;;;;;5073309;28;20028;-70
2022/11/28 02:47:53;;;;;;;4.18;3.28;;;13.30;97.90;;;;;;5073202;28;20032;-70
2022/11/28 02:50:27;;;;;;;4.32;3.67;;;13.30;97.80;;;;;;5073662;28;20020;-69
2022/11/28 02:53:02;;;;;;;4.53;3.90;;;13.20;98.00;;;;;;5072904;28;20026;-70
2022/11/28 02:55:28;;;;;;;4.80;3.38;;;13.30;98.10;;;;;;5073046;28;20366;-69
2022/11/28 02:57:54;;;;;;;4.05;3.45;;;13.30;97.90;;;;;;5073268;28;20492;-70
2022/11/28 03:00:28;;;;;;;4.78;3.80;;;13.30;97.90;;;;;;5073079;28;20095;-69
2022/11/28 03:03:21;;;;;;;4.35;3.67;;;13.30;97.90;;;;;;5073118;28;20028;-70
2022/11/28 03:05:58;;;;;;;4.57;3.38;;;13.30;98.20;;;;;;5072346;28;20424;-69
2022/11/28 03:08:49;;;;;;;3.72;3.40;;;13.30;97.80;;;;;;5073323;28;20047;-69
2022/11/28 03:11:40;;;;;;;4.18;3.72;;;13.40;97.90;;;;;;5073324;28;20025;-71
2022/11/28 03:14:31;;;;;;;5.13;3.80;;;13.20;98.00;;;;;;5072819;28;20021;-73
2022/11/28 03:17:12;;;;;;;4.70;3.70;;;13.30;98.00;;;;;;5072882;28;20021;-71
2022/11/28 03:19:50;;;;;;;3.83;3.42;;;13.30;98.00;;;;;;5072644;28;20077;-71
2022/11/28 03:22:39;;;;;;;4.18;3.40;;;13.20;98.20;;;;;;5071387;28;20431;-70
2022/11/28 03:25:31;;;;;;;4.57;3.90;;;13.30;98.20;;;;;;5072145;28;20131;-71
2022/11/28 03:28:10;;;;;;;4.10;3.70;;;13.30;98.00;;;;;;5071823;28;20047;-71
2022/11/28 03:31:01;;;;;;;4.00;3.60;;;13.20;98.20;;;;;;5072875;28;20112;-71
2022/11/28 03:33:34;;;;;;;4.10;3.70;;;13.30;98.10;;;;;;5072024;28;20116;-71
2022/11/28 03:36:05;;;;;;;3.47;3.17;;;13.30;98.40;;;;;;5072557;28;20103;-71
2022/11/28 03:38:37;;;;;;;4.47;4.00;;;13.30;98.20;;;;;;5072516;28;20036;-71
2022/11/28 03:41:12;;;;;;;3.92;3.53;;;13.30;98.30;;;;;;5072586;28;20251;-70
2022/11/28 03:43:43;;;;;;;3.70;3.40;;;13.20;98.30;;;;;;5072536;28;20017;-69
2022/11/28 03:46:13;;;;;;;3.90;3.50;;;13.30;98.30;;;;;;5072496;28;20119;-70
2022/11/28 03:48:51;;;;;;;3.80;3.40;;;13.20;98.30;;;;;;5072635;28;20020;-71
2022/11/28 03:51:32;;;;;;;4.50;3.50;;;13.20;98.40;;;;;;5072657;28;20104;-70
2022/11/28 03:54:10;;;;;;;4.28;3.83;;;13.20;98.50;;;;;;5072392;28;20036;-71
2022/11/28 03:56:43;;;;;;;4.07;3.67;;;13.20;98.50;;;;;;5072470;28;20382;-71
2022/11/28 03:59:11;;;;;;;;;;;13.20;98.40;;;;;;5072808;28;20021;-72
2022/11/28 04:01:55;;;;;;;4.10;3.70;;;13.40;98.40;;;;;;5071115;28;19908;-71
2022/11/28 04:04:38;;;;;;;4.25;3.85;;;13.20;98.40;;;;;;5071987;28;20037;-71
2022/11/28 04:07:43;;;;;;;4.43;4.03;;;13.20;98.50;;;;;;5072259;28;20027;-70
2022/11/28 04:10:16;;;;;;;4.97;4.35;;;13.20;98.70;;;;;;5071260;28;20032;-71
2022/11/28 04:13:11;;;;;;;5.05;4.55;;;13.20;98.60;;;;;;5072300;28;20031;-71
2022/11/28 04:15:52;;;;;;;4.22;3.78;;;13.20;98.70;;;;;;5071313;28;20068;-71
2022/11/28 04:18:30;;;;;;;6.05;4.90;;;13.20;98.60;;;;;;5073842;28;20012;-71
2022/11/28 04:21:19;;;;;;;4.85;4.38;;;13.20;98.70;;;;;;5075857;28;20127;-71
2022/11/28 04:23:46;;;;;;;5.88;4.97;;;13.10;98.90;;;;;;5075129;28;20086;-70
2022/11/28 04:26:29;;;;;;;5.55;5.05;;;13.10;98.80;;;;;;5075898;28;20064;-71
2022/11/28 04:28:58;;;;;;;5.50;4.28;;;13.10;98.80;;;;;;5075627;28;20032;-70
2022/11/28 04:31:25;;;;;;;5.60;4.50;;;13.20;98.70;;;;;;5075686;28;20381;-71
2022/11/28 04:33:57;;;;;;;6.75;4.82;;;13.20;98.70;;;;;;5075442;28;20029;-70
2022/11/28 04:36:25;;;;;;;6.65;4.65;;;13.20;98.80;;;;;;5074442;28;20462;-69
2022/11/28 04:38:55;;;;;;;5.75;5.15;;;13.20;98.80;;;;;;5075482;28;20048;-69
2022/11/28 04:41:32;;;;;;;6.20;5.13;;;13.20;98.80;;;;;;5076225;28;20031;-70
2022/11/28 04:44:30;;;;;;;7.25;5.57;;;13.20;98.60;;;;;;5075357;28;20032;-69
2022/11/28 04:46:56;;;;;;;6.10;5.25;;;13.30;98.80;;;;;;5075353;28;20095;-69
2022/11/28 04:49:24;;;;;;;7.85;5.10;;;13.30;98.70;;;;;;5075379;28;20020;-69
2022/11/28 04:52:11;;;;;;;7.47;5.13;;;13.20;98.80;;;;;;5075233;28;20028;-69
2022/11/28 04:54:48;;;;;;;6.15;5.55;;;13.20;98.90;;;;;;5075311;28;20020;-69
2022/11/28 04:57:17;;;;;;;8.02;6.60;;;13.20;99.00;;;;;;5075366;28;20078;-69
2022/11/28 04:59:43;;;;;;;7.78;6.15;;;13.20;99.00;;;;;;5067234;28;20377;-70
2022/11/28 05:02:10;;;;;;;7.90;6.28;;;13.20;98.90;;;;;;5054478;28;20021;-69
2022/11/28 05:04:36;;;;;;;8.43;6.50;;;13.20;99.00;;;;;;5054281;28;20033;-70
2022/11/28 05:07:05;;;;;;;7.32;6.15;;;13.20;98.90;;;;;;5053642;28;20385;-69
2022/11/28 05:09:30;;;;;;;8.25;6.85;;;13.20;99.30;;;;;;5054696;28;20052;-69
2022/11/28 05:11:56;;;;;;;9.32;7.40;;;13.10;99.10;;;;;;5053800;28;20426;-69
2022/11/28 05:14:22;;;;;;;8.60;6.75;;;13.20;99.10;;;;;;5054949;28;20048;-69
2022/11/28 05:16:47;;;;;;;8.77;7.20;;;13.20;99.10;;;;;;5054574;28;20385;-69
2022/11/28 05:19:14;;;;;;;8.07;7.28;;;13.20;99.10;;;;;;5054441;28;20517;-69
2022/11/28 05:21:39;;;;;;;8.98;7.28;;;13.20;99.00;;;;;;5054707;28;20028;-68
2022/11/28 05:24:06;;;;;;;8.35;7.45;;;13.20;99.10;;;;;;5054482;28;20100;-69
2022/11/28 05:26:33;;;;;;;8.40;7.53;;;13.20;99.00;;;;;;5054878;28;20028;-69
2022/11/28 05:28:58;;;;;;;9.93;8.18;;;13.10;99.20;;;;;;5054341;28;20048;-69
2022/11/28 05:31:24;;;;;;;9.00;8.07;;;13.20;99.20;;;;;;5054411;28;20059;-69
2022/11/28 05:33:50;;;;;;;10.85;8.93;;;13.20;99.30;;;;;;5054532;28;20501;-69
2022/11/28 05:36:16;;;;;;;9.55;8.55;;;13.20;99.30;;;;;;5054463;28;20048;-69
2022/11/28 05:38:43;;;;;;;11.23;9.90;;;13.20;99.20;;;;;;5054708;28;20569;-69
2022/11/28 05:41:09;;;;;;;11.38;9.38;;;13.20;99.30;;;;;;5054334;28;20075;-70
2022/11/28 05:43:35;;;;;;;10.90;9.80;;;13.30;99.30;;;;;;5054516;28;20401;-70
2022/11/28 05:46:03;;;;;;;11.52;10.32;;;13.30;99.20;;;;;;5053950;28;20557;-70
2022/11/28 05:48:29;;;;;;;13.05;10.52;;;13.30;99.40;;;;;;5056813;28;20021;-69
2022/11/28 05:50:54;;;;;;;11.82;10.57;;;13.20;99.40;;;;;;5062679;28;20036;-67
2022/11/28 05:53:20;;;;;;;12.32;11.02;;;13.20;99.40;;;;;;5071498;28;20020;-70
2022/11/28 05:55:46;;;;;;;11.60;10.50;;;13.20;99.30;;;;;;5063246;28;20063;-72
2022/11/28 05:58:12;;;;;;;11.38;10.25;;;13.20;99.70;;;;;;5063234;28;20021;-72
2022/11/28 06:00:37;;;;;;;12.40;11.15;;;13.20;99.40;;;;;;5060951;28;20120;-69
2022/11/28 06:03:04;;;;;;;11.15;10.02;;;13.20;99.50;;;;;;5058503;28;20052;-69
2022/11/28 06:05:30;;;;;;;10.18;9.00;;;13.10;99.00;;;;;;5068725;28;20028;-69
2022/11/28 06:07:55;;;;;;;10.10;9.10;;;12.90;98.90;;;;;;5060025;28;20025;-71
2022/11/28 06:10:21;;;;;;;10.15;9.02;;;12.80;99.00;;;;;;5051358;28;20111;-71
2022/11/28 06:12:47;;;;;;;11.98;8.77;;;12.80;99.00;;;;;;5054010;28;20025;-69
2022/11/28 06:15:13;;;;;;;10.68;8.88;;;12.70;99.20;;;;;;5053919;28;20051;-69
2022/11/28 06:17:38;;;;;;;12.48;9.90;;;12.80;99.30;;;;;;5060851;28;20473;-69
2022/11/28 06:20:06;;;;;;;11.85;10.23;;;12.70;99.30;;;;;;5056739;28;20033;-69
2022/11/28 06:22:32;;;;;;;11.20;10.10;;;12.70;99.40;;;;;;5053695;28;20028;-68
2022/11/28 06:24:57;;;;;;;14.43;10.57;;;12.70;99.40;;;;;;5058779;28;20029;-69
2022/11/28 06:27:23;;;;;;;11.85;10.65;;;12.70;99.40;;;;;;5059326;28;20070;-70
2022/11/28 06:29:49;;;;;;;13.48;10.95;;;12.70;99.50;;;;;;5053262;28;20079;-71
2022/11/28 06:32:16;;;;;;;11.98;10.68;;;12.70;99.50;;;;;;5057843;28;20099;-69
2022/11/28 06:34:41;;;;;;;12.15;10.80;;;12.70;99.50;;;;;;5051880;28;20500;-68
2022/11/28 06:37:07;;;;;;;12.20;10.27;;;12.70;99.60;;;;;;5058152;28;20024;-70
2022/11/28 06:39:32;;;;;;;12.38;9.95;;;12.70;99.60;;;;;;5073058;28;20401;-71
2022/11/28 06:41:58;;;;;;;12.43;11.23;;;12.70;99.60;;;;;;5062267;28;20474;-70
2022/11/28 06:44:23;;;;;;;13.38;11.40;;;12.80;99.70;;;;;;5060892;28;20052;-70
2022/11/28 06:46:49;;;;;;;13.23;11.27;;;12.70;99.80;;;;;;5063460;28;20037;-71
2022/11/28 06:49:14;;;;;;;13.35;11.77;;;12.70;99.80;;;;;;5068599;28;20028;-71
2022/11/28 06:51:41;;;;;;;13.32;11.93;;;12.70;99.80;;;;;;5058867;28;20101;-71
2022/11/28 06:54:07;;;;;;;14.82;13.30;;;12.70;99.90;;;;;;5072272;28;20024;-69
2022/11/28 06:56:32;;;;;;;13.90;10.57;;;12.70;99.90;;;;;;5066968;28;20013;-72
2022/11/28 06:58:59;;;;;;;14.00;11.25;;;12.80;99.90;;;;;;5052303;28;20033;-72
2022/11/28 07:01:27;;;;;;;11.95;10.25;;;13.10;99.90;;;;;;5065621;28;20025;-71
2022/11/28 07:03:53;;;;;;;12.63;10.43;;;13.20;99.90;;;;;;5066515;28;20043;-71
2022/11/28 07:06:20;;;;;;;15.82;11.00;;;13.30;99.80;;;;;;5059315;28;20025;-72
2022/11/28 07:08:46;;;;;;;13.50;11.00;;;13.40;99.80;;;;;;5054666;28;20374;-73
2022/11/28 07:11:18;;;;;;;20.08;11.32;;;13.40;99.70;;;;;;5059667;28;20097;-72
2022/11/28 07:13:44;;;;;;;13.18;9.65;;;13.30;99.90;;;;;;5067447;28;20142;-70
2022/11/28 07:16:31;;;;;;;16.42;11.52;;;13.80;99.50;;;;;;5075064;28;20590;-72
2022/11/28 07:18:57;;;;;;;15.00;11.77;;;13.70;99.20;;;;;;5060272;28;20025;-70
2022/11/28 07:21:23;;;;;;;14.75;12.23;;;13.60;99.40;;;;;;5052222;28;20032;-70
2022/11/28 07:23:49;;;;;;;15.20;11.32;;;13.50;99.60;;;;;;5051798;28;20025;-69
2022/11/28 07:26:17;;;;;;;17.95;11.82;;;13.40;99.80;;;;;;5052222;28;20037;-72
2022/11/28 07:28:44;;;;;;;15.15;10.93;;;13.40;99.80;;;;;;5052760;28;20112;-70
2022/11/28 07:31:18;;;;;;;16.02;11.77;;;13.50;99.70;;;;;;5052898;28;20033;-70
2022/11/28 07:33:45;;;;;;;14.60;10.57;;;13.50;99.80;;;;;;5052478;28;20023;-70
2022/11/28 07:36:25;;;;;;;13.55;10.25;;;13.50;99.70;;;;;;5052729;28;20025;-71
2022/11/28 07:38:57;;;;;;;13.82;8.35;;;13.50;99.70;;;;;;5052275;28;20036;-80
2022/11/28 07:41:23;;;;;;;13.23;8.45;;;13.80;99.50;;;;;;5052369;28;20040;-73
2022/11/28 07:43:51;;;;;;;11.02;9.02;;;14.00;99.10;;;;;;5052714;28;20027;-70
2022/11/28 07:46:18;;;;;;;15.20;10.15;;;14.10;98.90;;;;;;5052427;28;20090;-66
2022/11/28 07:48:44;;;;;;;13.63;10.32;;;14.20;98.80;;;;;;5052502;28;20040;-73
2022/11/28 07:51:16;;;;;;;14.10;10.02;;;14.20;98.60;;;;;;5052623;28;20029;-73
2022/11/28 07:53:42;;;;;;;12.25;10.90;;;14.20;98.50;;;;;;5053460;28;20057;-71
2022/11/28 07:56:13;;;;;;;14.20;11.50;;;14.30;98.40;;;;;;5056136;28;20111;-73
2022/11/28 07:58:40;;;;;;;11.75;9.93;;;14.30;98.30;;;;;;5056394;28;20017;-66
2022/11/28 08:01:15;;;;;;;14.95;11.25;;;14.50;98.10;;;;;;5056162;28;20043;-73
2022/11/28 08:03:41;;;;;;;14.18;11.55;;;14.40;98.00;;;;;;5056224;28;20021;-74
2022/11/28 08:06:07;;;;;;;15.55;11.68;;;14.30;98.00;;;;;;5056227;28;20040;-73
2022/11/28 08:08:33;;;;;;;12.60;11.20;;;14.20;98.30;;;;;;5059604;28;20130;-73
2022/11/28 08:11:01;;;;;;;17.30;11.57;;;14.10;98.40;;;;;;5072055;28;20107;-72
2022/11/28 08:13:27;;;;;;;12.85;10.57;;;14.00;98.40;;;;;;5058886;28;20025;-73
2022/11/28 08:15:53;;;;;;;13.18;10.48;;;14.10;98.60;;;;;;5069851;28;20025;-73
2022/11/28 08:18:19;;;;;;;12.88;10.73;;;14.10;98.60;;;;;;5055761;28;20385;-71
2022/11/28 08:20:45;;;;;;;15.77;11.85;;;14.20;98.50;;;;;;5055934;28;20054;-73
2022/11/28 08:23:11;;;;;;;16.27;12.27;;;14.10;98.60;;;;;;5056113;28;20039;-63
2022/11/28 08:25:36;;;;;;;13.27;11.20;;;14.00;98.60;;;;;;5055329;28;20136;-66
2022/11/28 08:28:02;;;;;;;12.25;10.45;;;13.90;98.70;;;;;;5054822;28;20025;-63
2022/11/28 08:30:28;;;;;;;13.60;10.73;;;13.90;98.70;;;;;;5055695;28;20124;-65
2022/11/28 08:32:53;;;;;;;12.93;9.85;;;13.80;98.90;;;;;;5061059;28;20028;-64
2022/11/28 08:35:19;;;;;;;16.98;10.10;;;13.80;99.00;;;;;;5075722;28;20031;-63
2022/11/28 08:37:44;;;;;;;19.05;11.05;;;14.20;99.10;;;;;;5075740;28;20028;-63
2022/11/28 08:40:10;;;;;;;16.23;12.15;;;14.20;99.00;;;;;;5075151;28;20028;-67
2022/11/28 08:42:36;;;;;;;14.55;10.32;;;14.10;98.80;;;;;;5075692;28;20017;-62
2022/11/28 08:45:02;;;;;;;15.55;10.98;;;14.20;98.70;;;;;;5075152;28;20036;-66
2022/11/28 08:47:27;;;;;;;15.13;11.13;;;14.20;98.70;;;;;;5071220;28;20465;-64
2022/11/28 08:49:53;;;;;;;14.25;9.85;;;14.40;98.30;;;;;;5062931;28;20028;-67
2022/11/28 08:52:18;;;;;;;16.00;9.43;;;14.40;98.30;;;;;;5067913;28;20055;-67
2022/11/28 08:54:44;;;;;;;15.73;11.13;;;14.40;98.20;;;;;;5061051;28;20497;-65
2022/11/28 08:57:09;;;;;;;15.43;9.88;;;14.30;98.30;;;;;;5057952;28;20032;-66
2022/11/28 08:59:36;;;;;;;17.30;10.35;;;14.30;98.30;;;;;;5054953;28;20028;-67
2022/11/28 09:02:01;;;;;;;16.98;10.52;;;14.40;98.40;;;;;;5060134;28;20024;-64
2022/11/28 09:04:27;;;;;;;15.80;9.95;;;14.40;98.50;;;;;;5069857;28;20017;-64
2022/11/28 09:06:53;;;;;;;14.90;10.18;;;14.40;98.60;;;;;;5082595;28;20027;-65
2022/11/28 09:09:19;;;;;;;16.23;10.57;;;14.40;98.70;;;;;;5084890;28;20024;-66
2022/11/28 09:11:45;;;;;;;17.05;10.45;;;14.30;98.70;;;;;;5076642;28;20029;-65
2022/11/28 09:14:10;;;;;;;13.27;10.20;;;14.40;98.70;;;;;;5085929;28;20491;-66
2022/11/28 09:16:39;;;;;;;16.88;10.38;;;14.30;98.90;;;;;;5067150;28;20389;-64
2022/11/28 09:19:07;;;;;;;13.98;9.52;;;14.30;98.90;;;;;;5080039;28;20691;-66
2022/11/28 09:21:33;;;;;;;16.23;9.82;;;14.30;99.00;;;;;;5088367;28;20028;-66
2022/11/28 09:23:59;;;;;;;14.20;10.50;;;14.40;99.00;;;;;;5075936;28;20029;-65
2022/11/28 09:26:25;;;;;;;17.40;9.55;;;14.40;99.00;;;;;;5086950;28;20082;-65
2022/11/28 09:28:51;;;;;;;15.93;8.93;;;14.50;98.70;;;;;;5079015;28;20024;-66
2022/11/28 09:31:18;;;;;;;18.50;9.75;;;14.60;98.70;;;;;;5074931;28;20465;-69
2022/11/28 09:33:45;;;;;;;15.95;9.60;;;14.60;98.90;;;;;;5075443;28;20028;-67
2022/11/28 09:36:13;;;;;;;14.65;9.75;;;14.60;98.90;;;;;;5090704;28;20103;-66
2022/11/28 09:38:39;;;;;;;17.27;10.95;;;14.70;98.70;;;;;;5081997;28;20060;-71
2022/11/28 09:41:38;;;;;;;17.98;9.88;;;14.70;98.70;;;;;;5081377;28;20060;-72
2022/11/28 09:44:19;;;;;;;16.45;9.30;;;14.70;98.70;;;;;;5089342;28;20465;-72
2022/11/28 09:46:47;;;;;;;11.68;8.32;;;14.70;98.70;;;;;;5066595;28;20500;-75
2022/11/28 09:49:41;;;;;;;10.02;7.25;;;14.80;98.90;;;;;;5084496;28;20020;-72
2022/11/28 09:52:29;;;;;;;14.90;7.13;;;14.70;98.50;;;;;;5067073;28;20023;-70
2022/11/28 09:55:13;;;;;;;13.10;10.65;;;14.80;98.60;;;;;;5082066;28;20027;-73
2022/11/28 09:57:42;;;;;;;14.75;10.68;;;13.40;99.90;;;;;;5087738;28;20052;-74
2022/11/28 10:00:21;;;;;;;16.20;11.93;;;12.10;99.90;;;;;;5074758;28;20024;-72
2022/11/28 10:03:20;;;;;;;21.33;11.77;;;11.60;99.90;;;;;;5083413;28;20073;-70
2022/11/28 10:05:58;;;;;;;13.48;7.35;;;11.60;99.90;;;;;;5081662;28;20123;-72
2022/11/28 10:08:27;;;;;;;11.38;6.38;;;12.40;99.90;;;;;;5084184;28;20017;-71
2022/11/28 10:11:10;;;;;;;17.23;8.55;;;13.00;99.90;;;;;;5074449;28;20508;-72
2022/11/28 10:13:55;;;;;;;15.68;8.73;;;13.10;99.90;;;;;;5083402;28;20028;-72
2022/11/28 10:16:47;;;;;;;17.15;10.70;;;13.50;99.90;;;;;;5061184;28;20024;-73
2022/11/28 10:19:17;;;;;;;16.63;10.40;;;13.10;99.90;;;;;;5078837;28;20035;-71
2022/11/28 10:21:54;;;;;;;18.52;11.05;;;12.40;99.90;;;;;;5088410;28;20024;-70
2022/11/28 10:24:27;;;;;;;12.52;9.00;;;12.20;99.90;;;;;;5074850;28;20016;-68
2022/11/28 10:26:57;;;;;;;13.80;8.20;;;12.50;99.90;;;;;;5068179;28;20036;-71
2022/11/28 10:29:31;;;;;;;16.58;9.77;;;12.70;99.90;;;;;;5078867;28;20505;-68
2022/11/28 10:32:00;;;;;;;18.98;10.18;;;12.50;99.90;;;;;;5075287;28;20274;-65
2022/11/28 10:34:37;;;;;;;15.57;11.40;;;13.00;99.90;;;;;;5078917;28;20028;-73
2022/11/28 10:37:09;;;;;;;15.38;10.55;;;12.90;99.90;;;;;;5080037;28;20089;-71
2022/11/28 10:39:39;;;;;;;19.85;12.50;;;12.50;99.90;;;;;;5086529;28;20047;-71
2022/11/28 10:42:28;;;;;;;16.17;12.18;;;12.20;99.90;;;;;;5066128;28;20055;-70
2022/11/28 10:45:20;;;;;;;18.58;9.10;;;11.90;99.90;;;;;;5074723;28;20557;-66
2022/11/28 10:48:23;;;;;;;14.45;11.38;;;12.10;99.90;;;;;;5087802;28;20484;-68
2022/11/28 10:51:23;;;;;;;18.67;12.43;;;12.30;99.90;;;;;;5079785;28;20028;-66
2022/11/28 10:53:58;;;;;;;17.48;12.27;;;12.20;99.90;;;;;;5074767;28;20024;-67
2022/11/28 10:56:23;;;;;;;21.35;12.73;;;11.80;99.90;;;;;;5085522;28;20346;-66
2022/11/28 10:59:00;;;;;;;19.80;13.68;;;11.70;99.90;;;;;;5071782;28;20046;-70
2022/11/28 11:01:38;;;;;;;19.70;12.70;;;11.50;99.90;;;;;;5057944;28;20037;-69
2022/11/28 11:04:04;;;;;;;26.65;16.73;;;11.50;99.90;;;;;;5066428;28;20070;-65
2022/11/28 11:06:30;;;;;;;19.63;12.07;;;11.60;99.90;;;;;;5076649;28;20035;-68
2022/11/28 11:08:55;;;;;;;19.02;12.82;;;11.70;99.90;;;;;;5080066;28;20029;-68
2022/11/28 11:11:27;;;;;;;20.92;13.07;;;11.80;99.90;;;;;;5083797;28;20040;-67
2022/11/28 11:13:55;;;;;;;18.95;12.25;;;11.80;99.90;;;;;;5074311;28;20031;-68
2022/11/28 11:16:21;;;;;;;19.00;13.98;;;11.80;99.90;;;;;;5075956;28;20017;-69
2022/11/28 11:18:50;;;;;;;19.00;14.13;;;11.70;99.90;;;;;;5068149;28;20093;-69
2022/11/28 11:21:18;;;;;;;20.13;13.25;;;11.80;99.90;;;;;;5083168;28;20119;-68
2022/11/28 11:23:44;;;;;;;23.17;14.40;;;11.80;99.90;;;;;;5063453;28;20425;-68
2022/11/28 11:26:42;;;;;;;24.67;14.48;;;12.00;99.90;;;;;;5055859;28;20118;-71
2022/11/28 11:29:37;;;;;;;26.75;13.90;;;12.00;99.90;;;;;;5088366;28;20036;-71
2022/11/28 11:32:05;;;;;;;21.30;14.50;;;11.80;99.90;;;;;;5070890;28;20056;-70
2022/11/28 11:34:45;;;;;;;18.52;12.82;;;11.50;99.90;;;;;;5074324;28;20021;-72
2022/11/28 11:37:29;;;;;;;23.58;12.80;;;11.50;99.90;;;;;;5081730;28;20020;-71
2022/11/28 11:39:55;;;;;;;18.67;11.13;;;11.80;99.90;;;;;;5076416;28;20040;-72
2022/11/28 11:42:25;;;;;;;28.13;13.55;;;12.30;99.90;;;;;;5080783;28;20016;-71
2022/11/28 11:44:52;;;;;;;15.30;11.15;;;12.80;99.90;;;;;;5081022;28;20471;-71
2022/11/28 11:47:18;;;;;;;20.83;12.27;;;13.10;99.90;;;;;;5083915;28;20065;-72
2022/11/28 11:49:48;;;;;;;19.48;11.70;;;13.40;99.90;;;;;;5094316;28;20012;-69
2022/11/28 11:52:21;;;;;;;17.25;11.48;;;13.50;99.90;;;;;;5081892;28;20016;-71
2022/11/28 11:54:56;;;;;;;17.90;10.93;;;13.80;99.90;;;;;;5085408;28;20077;-73
2022/11/28 11:57:32;;;;;;;21.88;11.73;;;13.90;99.90;;;;;;5087663;28;20070;-73
2022/11/28 12:00:00;;;;;;;22.52;12.02;;;14.00;99.90;;;;;;5084649;28;20073;-72
2022/11/28 12:02:42;;;;;;;18.88;10.70;;;14.20;99.90;;;;;;5091198;28;20020;-71
2022/11/28 12:05:17;;;;;;;17.30;11.20;;;14.30;99.90;;;;;;5088810;28;20032;-71
2022/11/28 12:08:07;;;;;;;17.13;10.95;;;14.20;99.90;;;;;;5080335;28;20377;-70
2022/11/28 12:10:44;;;;;;;20.75;11.32;;;14.40;99.90;;;;;;5070608;28;20066;-72
2022/11/28 12:13:21;;;;;;;17.50;10.98;;;14.40;99.90;;;;;;5085610;28;20111;-72
2022/11/28 12:16:26;;;;;;;25.92;10.93;;;14.50;99.90;;;;;;5094013;28;20024;-70
2022/11/28 12:19:18;;;;;;;15.70;11.32;;;14.50;99.90;;;;;;5086329;28;20024;-66
2022/11/28 12:22:10;;;;;;;20.13;10.75;;;14.50;99.90;;;;;;5080517;28;20072;-67
2022/11/28 12:24:54;;;;;;;20.90;11.95;;;14.50;99.90;;;;;;5076513;28;20040;-66
2022/11/28 12:27:42;;;;;;;19.33;10.43;;;14.50;99.90;;;;;;5083795;28;20029;-66
2022/11/28 12:30:11;;;;;;;20.80;11.75;;;14.50;99.90;;;;;;5093729;28;20028;-66
2022/11/28 12:33:01;;;;;;;18.10;11.45;;;14.50;99.90;;;;;;5075346;28;20016;-67
2022/11/28 12:35:30;;;;;;;17.58;10.85;;;14.50;99.90;;;;;;5075600;28;20024;-67
2022/11/28 12:37:58;;;;;;;19.92;11.48;;;14.40;99.90;;;;;;5092763;28;20020;-68
2022/11/28 12:41:10;;;;;;;22.58;11.15;;;14.50;99.90;;;;;;5072049;28;20104;-67
2022/11/28 12:43:53;;;;;;;18.27;10.10;;;14.50;99.90;;;;;;5088779;28;20027;-65
2022/11/28 12:46:27;;;;;;;21.02;10.35;;;14.60;99.90;;;;;;5063472;28;20415;-67
2022/11/28 12:49:19;;;;;;;22.73;10.40;;;14.60;99.80;;;;;;5083667;28;20016;-67
2022/11/28 12:52:11;;;;;;;17.40;9.40;;;14.60;99.90;;;;;;5072643;28;20083;-66
2022/11/28 12:55:04;;;;;;;16.17;9.82;;;14.60;99.90;;;;;;5084380;28;20288;-68
2022/11/28 12:57:37;;;;;;;16.15;9.20;;;14.70;99.90;;;;;;5078436;28;20044;-67
2022/11/28 13:00:25;;;;;;;17.92;9.95;;;14.80;99.90;;;;;;5089876;28;20074;-67
2022/11/28 13:02:50;;;;;;;16.25;8.15;;;14.80;99.90;;;;;;5076957;28;20479;-66
2022/11/28 13:05:20;;;;;;;16.20;7.18;;;14.90;99.90;;;;;;5086334;28;20056;-71